DNO773 HKJK-HDAM
Flight info
| Callsign | DNO773 |
|---|---|
| Flight time | 2h 12m |
| Altitude | 33000 |
| Route | ATUDU1D WAV UM997 ASTAR ASTAR1R |
| Aircraft | B738/M-SDE2E3FGHIRWXY/LB1 |
Departure
| Time | 2026-04-26 17:15 |
|---|---|
| Airport | Jomo Kenyatta International Airport (HKJK) |
Arrival
| Time | 2026-04-26 19:28 |
|---|---|
| Airport | Djibouti-Ambouli Airport (HDAM) |
| Time | Latitude | Longitude | Altitude | Speed | Heading |
|---|---|---|---|---|---|
| 2026-04-26 16:21 | -1.32841 | 36.92554 | 5337 ft | 0 kts | 193° |
| 2026-04-26 16:23 | -1.32866 | 36.92492 | 5338 ft | 0 kts | 193° |
| 2026-04-26 16:24 | -1.32865 | 36.92492 | 5338 ft | 0 kts | 193° |
| 2026-04-26 17:00 | -1.32841 | 36.92498 | 5355 ft | 4 kts | 193° |
| 2026-04-26 17:01 | -1.32819 | 36.92507 | 5359 ft | 4 kts | 206° |
| 2026-04-26 17:01 | -1.32797 | 36.92518 | 5356 ft | 4 kts | 212° |
| 2026-04-26 17:01 | -1.32778 | 36.92532 | 5356 ft | 4 kts | 239° |
| 2026-04-26 17:01 | -1.32772 | 36.92549 | 5356 ft | 0 kts | 277° |
| 2026-04-26 17:04 | -1.32766 | 36.92506 | 5355 ft | 9 kts | 275° |
| 2026-04-26 17:04 | -1.32769 | 36.92443 | 5356 ft | 9 kts | 261° |
| 2026-04-26 17:04 | -1.32784 | 36.92385 | 5357 ft | 9 kts | 254° |
| 2026-04-26 17:04 | -1.32816 | 36.92335 | 5354 ft | 8 kts | 231° |
| 2026-04-26 17:05 | -1.32845 | 36.92286 | 5355 ft | 8 kts | 257° |
| 2026-04-26 17:05 | -1.32826 | 36.92237 | 5354 ft | 8 kts | 316° |
| 2026-04-26 17:05 | -1.32818 | 36.92230 | 5354 ft | 0 kts | 317° |
| 2026-04-26 17:05 | -1.32817 | 36.92229 | 5354 ft | 2 kts | 317° |
| 2026-04-26 17:06 | -1.32790 | 36.92199 | 5355 ft | 9 kts | 300° |
| 2026-04-26 17:06 | -1.32798 | 36.92143 | 5355 ft | 8 kts | 242° |
| 2026-04-26 17:06 | -1.32833 | 36.92097 | 5358 ft | 8 kts | 233° |
| 2026-04-26 17:06 | -1.32865 | 36.92053 | 5359 ft | 8 kts | 234° |
| 2026-04-26 17:07 | -1.32896 | 36.92008 | 5356 ft | 8 kts | 237° |
| 2026-04-26 17:07 | -1.32924 | 36.91964 | 5357 ft | 7 kts | 234° |
| 2026-04-26 17:07 | -1.32957 | 36.91927 | 5357 ft | 7 kts | 230° |
| 2026-04-26 17:07 | -1.32984 | 36.91886 | 5360 ft | 7 kts | 233° |
| 2026-04-26 17:08 | -1.33014 | 36.91849 | 5357 ft | 7 kts | 230° |
| 2026-04-26 17:08 | -1.32996 | 36.91818 | 5359 ft | 7 kts | 342° |
| 2026-04-26 17:08 | -1.32983 | 36.91812 | 5358 ft | 1 kts | 330° |
| 2026-04-26 17:08 | -1.32955 | 36.91794 | 5358 ft | 0 kts | 323° |
| 2026-04-26 17:09 | -1.32949 | 36.91789 | 5358 ft | 3 kts | 324° |
| 2026-04-26 17:09 | -1.32906 | 36.91759 | 5359 ft | 6 kts | 325° |
| 2026-04-26 17:09 | -1.32873 | 36.91735 | 5359 ft | 6 kts | 324° |
| 2026-04-26 17:10 | -1.32843 | 36.91714 | 5361 ft | 0 kts | 323° |
| 2026-04-26 17:12 | -1.32814 | 36.91693 | 5357 ft | 8 kts | 323° |
| 2026-04-26 17:12 | -1.32768 | 36.91667 | 5359 ft | 8 kts | 353° |
| 2026-04-26 17:13 | -1.32727 | 36.91685 | 5358 ft | 1 kts | 46° |
| 2026-04-26 17:13 | -1.32724 | 36.91689 | 5358 ft | 0 kts | 46° |
| 2026-04-26 17:14 | -1.32722 | 36.91691 | 5360 ft | 2 kts | 48° |
| 2026-04-26 17:15 | -1.32075 | 36.92576 | 5345 ft | 155 kts | 52° |
| 2026-04-26 17:15 | -1.31334 | 36.93557 | 5751 ft | 190 kts | 54° |
| 2026-04-26 17:15 | -1.30513 | 36.94648 | 6592 ft | 205 kts | 54° |
| 2026-04-26 17:16 | -1.29761 | 36.95936 | 6950 ft | 229 kts | 77° |
| 2026-04-26 17:16 | -1.29593 | 36.97499 | 7786 ft | 225 kts | 86° |
| 2026-04-26 17:16 | -1.29455 | 36.99061 | 8531 ft | 227 kts | 85° |
| 2026-04-26 17:16 | -1.29306 | 37.00649 | 9362 ft | 231 kts | 85° |
| 2026-04-26 17:17 | -1.29152 | 37.02255 | 10238 ft | 233 kts | 85° |
| 2026-04-26 17:17 | -1.28994 | 37.03882 | 10695 ft | 235 kts | 85° |
| 2026-04-26 17:17 | -1.28834 | 37.05513 | 11062 ft | 236 kts | 85° |
| 2026-04-26 17:17 | -1.28672 | 37.07151 | 11105 ft | 236 kts | 85° |
| 2026-04-26 17:18 | -1.28510 | 37.08791 | 11136 ft | 239 kts | 85° |
| 2026-04-26 17:18 | -1.28344 | 37.10454 | 11153 ft | 242 kts | 85° |
| 2026-04-26 17:18 | -1.28177 | 37.12134 | 11536 ft | 244 kts | 85° |
| 2026-04-26 17:18 | -1.28007 | 37.13837 | 12208 ft | 252 kts | 85° |
| 2026-04-26 17:19 | -1.26282 | 37.16924 | 13572 ft | 269 kts | 46° |
| 2026-04-26 17:19 | -1.24936 | 37.18235 | 14342 ft | 273 kts | 45° |
| 2026-04-26 17:19 | -1.23524 | 37.19586 | 14884 ft | 285 kts | 45° |
| 2026-04-26 17:20 | -1.22081 | 37.20963 | 15597 ft | 288 kts | 45° |
| 2026-04-26 17:20 | -1.21591 | 37.21431 | 15872 ft | 289 kts | 44° |
| 2026-04-26 17:20 | -1.19166 | 37.23753 | 17238 ft | 289 kts | 45° |
| 2026-04-26 17:20 | -1.17751 | 37.25112 | 18410 ft | 276 kts | 45° |
| 2026-04-26 17:21 | -1.16369 | 37.26443 | 18870 ft | 276 kts | 45° |
| 2026-04-26 17:21 | -1.15000 | 37.27763 | 19093 ft | 272 kts | 45° |
| 2026-04-26 17:21 | -1.13656 | 37.29061 | 19086 ft | 271 kts | 45° |
| 2026-04-26 17:21 | -1.12304 | 37.30367 | 19278 ft | 269 kts | 45° |
| 2026-04-26 17:22 | -1.10958 | 37.31668 | 19837 ft | 270 kts | 45° |
| 2026-04-26 17:22 | -1.09604 | 37.32979 | 20506 ft | 271 kts | 45° |
| 2026-04-26 17:22 | -1.08238 | 37.34300 | 21090 ft | 278 kts | 45° |
| 2026-04-26 17:22 | -1.06789 | 37.35704 | 21225 ft | 302 kts | 45° |
| 2026-04-26 17:23 | -1.05229 | 37.37215 | 21388 ft | 321 kts | 45° |
| 2026-04-26 17:23 | -1.03595 | 37.38798 | 21819 ft | 331 kts | 44° |
| 2026-04-26 17:23 | -1.01932 | 37.40407 | 22419 ft | 334 kts | 44° |
| 2026-04-26 17:23 | -1.00262 | 37.42022 | 23154 ft | 333 kts | 44° |
| 2026-04-26 17:24 | -0.98593 | 37.43638 | 23753 ft | 337 kts | 44° |
| 2026-04-26 17:24 | -0.97473 | 37.44722 | 24030 ft | 341 kts | 44° |
| 2026-04-26 17:24 | -0.95193 | 37.46929 | 24652 ft | 345 kts | 44° |
| 2026-04-26 17:24 | -0.93463 | 37.48603 | 25176 ft | 347 kts | 45° |
| 2026-04-26 17:25 | -0.91711 | 37.50299 | 25707 ft | 350 kts | 45° |
| 2026-04-26 17:25 | -0.90551 | 37.51422 | 26039 ft | 352 kts | 45° |
| 2026-04-26 17:25 | -0.88770 | 37.53147 | 26305 ft | 362 kts | 45° |
| 2026-04-26 17:25 | -0.86940 | 37.54919 | 26650 ft | 369 kts | 45° |
| 2026-04-26 17:26 | -0.85055 | 37.56744 | 26701 ft | 385 kts | 45° |
| 2026-04-26 17:26 | -0.83103 | 37.58634 | 26855 ft | 396 kts | 45° |
| 2026-04-26 17:26 | -0.81113 | 37.60560 | 27191 ft | 401 kts | 45° |
| 2026-04-26 17:26 | -0.79106 | 37.62502 | 27643 ft | 402 kts | 45° |
| 2026-04-26 17:27 | -0.77095 | 37.64449 | 28097 ft | 404 kts | 45° |
| 2026-04-26 17:27 | -0.75067 | 37.66411 | 28533 ft | 405 kts | 45° |
| 2026-04-26 17:27 | -0.73097 | 37.68317 | 29469 ft | 393 kts | 45° |
| 2026-04-26 17:27 | -0.71144 | 37.70206 | 30154 ft | 390 kts | 45° |
| 2026-04-26 17:28 | -0.69183 | 37.72104 | 30450 ft | 395 kts | 45° |
| 2026-04-26 17:28 | -0.67190 | 37.74034 | 30721 ft | 400 kts | 45° |
| 2026-04-26 17:28 | -0.65178 | 37.75982 | 31074 ft | 403 kts | 45° |
| 2026-04-26 17:28 | -0.63167 | 37.77929 | 31460 ft | 404 kts | 45° |
| 2026-04-26 17:29 | -0.61144 | 37.79887 | 31835 ft | 405 kts | 45° |
| 2026-04-26 17:29 | -0.59797 | 37.81190 | 32052 ft | 407 kts | 45° |
| 2026-04-26 17:29 | -0.57099 | 37.83802 | 32509 ft | 409 kts | 45° |
| 2026-04-26 17:29 | -0.55050 | 37.85784 | 32841 ft | 411 kts | 45° |
| 2026-04-26 17:30 | -0.52987 | 37.87782 | 33026 ft | 416 kts | 45° |
| 2026-04-26 17:30 | -0.50868 | 37.89832 | 33020 ft | 420 kts | 45° |
| 2026-04-26 17:30 | -0.46700 | 37.93865 | 32990 ft | 412 kts | 45° |
| 2026-04-26 17:31 | -0.42616 | 37.97818 | 33014 ft | 412 kts | 44° |
| 2026-04-26 17:31 | -0.38487 | 38.01813 | 32998 ft | 414 kts | 44° |
| 2026-04-26 17:32 | -0.34343 | 38.05824 | 32992 ft | 415 kts | 44° |
| 2026-04-26 17:32 | -0.32287 | 38.07813 | 32971 ft | 404 kts | 44° |
| 2026-04-26 17:32 | -0.30302 | 38.09734 | 32956 ft | 392 kts | 44° |
| 2026-04-26 17:33 | -0.26401 | 38.13509 | 32980 ft | 392 kts | 44° |
| 2026-04-26 17:34 | -0.20490 | 38.19230 | 32971 ft | 397 kts | 44° |
| 2026-04-26 17:34 | -0.16529 | 38.23064 | 32970 ft | 400 kts | 44° |
| 2026-04-26 17:35 | -0.12521 | 38.26941 | 32963 ft | 401 kts | 44° |
| 2026-04-26 17:35 | -0.08515 | 38.30818 | 32957 ft | 400 kts | 44° |
| 2026-04-26 17:36 | -0.04522 | 38.34682 | 32953 ft | 402 kts | 44° |
| 2026-04-26 17:36 | -0.00426 | 38.38646 | 32970 ft | 418 kts | 44° |
| 2026-04-26 17:37 | 0.03835 | 38.42770 | 32961 ft | 433 kts | 44° |
| 2026-04-26 17:37 | 0.08222 | 38.47016 | 32955 ft | 445 kts | 44° |
| 2026-04-26 17:38 | 0.12737 | 38.51385 | 32940 ft | 456 kts | 44° |
| 2026-04-26 17:38 | 0.15023 | 38.53597 | 32942 ft | 460 kts | 44° |
| 2026-04-26 17:38 | 0.19595 | 38.58021 | 32930 ft | 461 kts | 44° |
| 2026-04-26 17:39 | 0.24203 | 38.62479 | 32936 ft | 461 kts | 44° |
| 2026-04-26 17:39 | 0.28805 | 38.66932 | 32932 ft | 460 kts | 44° |
| 2026-04-26 17:40 | 0.32657 | 38.70661 | 32930 ft | 460 kts | 44° |
| 2026-04-26 17:40 | 0.38011 | 38.75842 | 32934 ft | 459 kts | 44° |
| 2026-04-26 17:41 | 0.42568 | 38.80252 | 32932 ft | 459 kts | 44° |
| 2026-04-26 17:41 | 0.47176 | 38.84712 | 32932 ft | 458 kts | 44° |
| 2026-04-26 17:42 | 0.51727 | 38.89116 | 32931 ft | 458 kts | 44° |
| 2026-04-26 17:42 | 0.56303 | 38.93545 | 32932 ft | 457 kts | 44° |
| 2026-04-26 17:43 | 0.60875 | 38.97970 | 32922 ft | 457 kts | 44° |
| 2026-04-26 17:43 | 0.65445 | 39.02394 | 32920 ft | 457 kts | 44° |
| 2026-04-26 17:44 | 0.70011 | 39.06812 | 32923 ft | 456 kts | 44° |
| 2026-04-26 17:44 | 0.74561 | 39.11217 | 32920 ft | 455 kts | 44° |
| 2026-04-26 17:45 | 0.79083 | 39.15594 | 32920 ft | 454 kts | 44° |
| 2026-04-26 17:45 | 0.83619 | 39.19985 | 32919 ft | 454 kts | 44° |
| 2026-04-26 17:46 | 0.88155 | 39.24375 | 32921 ft | 454 kts | 44° |
| 2026-04-26 17:46 | 0.92687 | 39.28763 | 32921 ft | 453 kts | 44° |
| 2026-04-26 17:47 | 0.96461 | 39.32417 | 32917 ft | 453 kts | 44° |
| 2026-04-26 17:47 | 1.01727 | 39.37515 | 32918 ft | 453 kts | 44° |
| 2026-04-26 17:48 | 1.06254 | 39.41898 | 32922 ft | 453 kts | 44° |
| 2026-04-26 17:48 | 1.10787 | 39.46287 | 32920 ft | 453 kts | 44° |
| 2026-04-26 17:49 | 1.15320 | 39.50676 | 32924 ft | 454 kts | 44° |
| 2026-04-26 17:49 | 1.19852 | 39.55064 | 32925 ft | 454 kts | 44° |
| 2026-04-26 17:50 | 1.24389 | 39.59457 | 32932 ft | 454 kts | 45° |
| 2026-04-26 17:50 | 1.28920 | 39.63846 | 32927 ft | 454 kts | 45° |
| 2026-04-26 17:51 | 1.33451 | 39.68233 | 32931 ft | 453 kts | 45° |
| 2026-04-26 17:51 | 1.37952 | 39.72593 | 32932 ft | 453 kts | 45° |
| 2026-04-26 17:52 | 1.42472 | 39.76971 | 32936 ft | 452 kts | 45° |
| 2026-04-26 17:52 | 1.46996 | 39.81353 | 32942 ft | 452 kts | 45° |
| 2026-04-26 17:53 | 1.51507 | 39.85723 | 32927 ft | 452 kts | 45° |
| 2026-04-26 17:54 | 1.58274 | 39.92280 | 32912 ft | 451 kts | 45° |
| 2026-04-26 17:54 | 1.62766 | 39.96632 | 32900 ft | 452 kts | 45° |
| 2026-04-26 17:55 | 1.67288 | 40.01015 | 32889 ft | 453 kts | 45° |
| 2026-04-26 17:55 | 1.71826 | 40.05413 | 32892 ft | 454 kts | 45° |
| 2026-04-26 17:55 | 1.74251 | 40.07438 | 32870 ft | 456 kts | 32° |
| 2026-04-26 17:56 | 1.77130 | 40.08759 | 32882 ft | 458 kts | 18° |
| 2026-04-26 17:57 | 1.89703 | 40.11189 | 32899 ft | 460 kts | 12° |
| 2026-04-26 17:57 | 1.95945 | 40.12365 | 32911 ft | 459 kts | 13° |
| 2026-04-26 17:58 | 2.08438 | 40.14809 | 32960 ft | 456 kts | 12° |
| 2026-04-26 17:59 | 2.17773 | 40.16642 | 32947 ft | 454 kts | 12° |
| 2026-04-26 17:59 | 2.23963 | 40.17856 | 32963 ft | 453 kts | 12° |
| 2026-04-26 18:00 | 2.30150 | 40.19070 | 32969 ft | 453 kts | 12° |
| 2026-04-26 18:00 | 2.36293 | 40.20275 | 32969 ft | 452 kts | 12° |
| 2026-04-26 18:01 | 2.42458 | 40.21485 | 32969 ft | 451 kts | 12° |
| 2026-04-26 18:01 | 2.48644 | 40.22699 | 32961 ft | 453 kts | 12° |
| 2026-04-26 18:02 | 2.52778 | 40.23510 | 32965 ft | 453 kts | 12° |
| 2026-04-26 18:02 | 2.60963 | 40.25198 | 32967 ft | 452 kts | 14° |
| 2026-04-26 18:03 | 2.67088 | 40.26664 | 32969 ft | 452 kts | 15° |
| 2026-04-26 18:03 | 2.73207 | 40.28142 | 32973 ft | 452 kts | 15° |
| 2026-04-26 18:04 | 2.79345 | 40.29601 | 32978 ft | 453 kts | 14° |
| 2026-04-26 18:05 | 2.88555 | 40.31770 | 32974 ft | 453 kts | 14° |
| 2026-04-26 18:05 | 2.94666 | 40.33207 | 32975 ft | 453 kts | 14° |
| 2026-04-26 18:06 | 3.00803 | 40.34652 | 32973 ft | 453 kts | 14° |
| 2026-04-26 18:06 | 3.06942 | 40.36096 | 32978 ft | 453 kts | 14° |
| 2026-04-26 18:07 | 3.13077 | 40.37541 | 32983 ft | 453 kts | 14° |
| 2026-04-26 18:07 | 3.19182 | 40.38979 | 32979 ft | 453 kts | 14° |
| 2026-04-26 18:08 | 3.25316 | 40.40423 | 32979 ft | 452 kts | 14° |
| 2026-04-26 18:08 | 3.31484 | 40.41876 | 32981 ft | 452 kts | 14° |
| 2026-04-26 18:09 | 3.37569 | 40.43309 | 32987 ft | 452 kts | 14° |
| 2026-04-26 18:09 | 3.43686 | 40.44750 | 32989 ft | 451 kts | 14° |
| 2026-04-26 18:10 | 3.49808 | 40.46193 | 32994 ft | 451 kts | 14° |
| 2026-04-26 18:10 | 3.55929 | 40.47636 | 32998 ft | 452 kts | 14° |
| 2026-04-26 18:11 | 3.62024 | 40.49072 | 32994 ft | 453 kts | 14° |
| 2026-04-26 18:11 | 3.68154 | 40.50517 | 32996 ft | 452 kts | 14° |
| 2026-04-26 18:12 | 3.73293 | 40.51729 | 33002 ft | 452 kts | 14° |
| 2026-04-26 18:12 | 3.79380 | 40.53164 | 33009 ft | 452 kts | 14° |
| 2026-04-26 18:13 | 3.85506 | 40.54609 | 33005 ft | 452 kts | 14° |
| 2026-04-26 18:13 | 3.91648 | 40.56058 | 33006 ft | 453 kts | 14° |
| 2026-04-26 18:14 | 3.97780 | 40.57505 | 33013 ft | 452 kts | 14° |
| 2026-04-26 18:14 | 4.03921 | 40.58925 | 33010 ft | 452 kts | 14° |
| 2026-04-26 18:15 | 4.10065 | 40.60268 | 33018 ft | 452 kts | 13° |
| 2026-04-26 18:15 | 4.16211 | 40.61606 | 33016 ft | 452 kts | 13° |
| 2026-04-26 18:16 | 4.22318 | 40.62946 | 33017 ft | 451 kts | 13° |
| 2026-04-26 18:16 | 4.31513 | 40.64971 | 33020 ft | 450 kts | 13° |
| 2026-04-26 18:17 | 4.37628 | 40.66320 | 33017 ft | 449 kts | 13° |
| 2026-04-26 18:17 | 4.43739 | 40.67666 | 33011 ft | 449 kts | 13° |
| 2026-04-26 18:18 | 4.49838 | 40.69011 | 33013 ft | 448 kts | 13° |
| 2026-04-26 18:18 | 4.55898 | 40.70347 | 33025 ft | 450 kts | 13° |
| 2026-04-26 18:19 | 4.62018 | 40.71697 | 33018 ft | 450 kts | 13° |
| 2026-04-26 18:19 | 4.68139 | 40.73048 | 33009 ft | 450 kts | 13° |
| 2026-04-26 18:20 | 4.74243 | 40.74394 | 33020 ft | 448 kts | 13° |
| 2026-04-26 18:20 | 4.79314 | 40.75511 | 33018 ft | 448 kts | 13° |
| 2026-04-26 18:21 | 4.86426 | 40.77079 | 33021 ft | 448 kts | 13° |
| 2026-04-26 18:21 | 4.92477 | 40.78414 | 33018 ft | 448 kts | 13° |
| 2026-04-26 18:22 | 4.98562 | 40.79756 | 33026 ft | 448 kts | 13° |
| 2026-04-26 18:22 | 5.04660 | 40.81102 | 33022 ft | 449 kts | 13° |
| 2026-04-26 18:23 | 5.10766 | 40.82450 | 33027 ft | 449 kts | 13° |
| 2026-04-26 18:23 | 5.16879 | 40.83800 | 33019 ft | 449 kts | 13° |
| 2026-04-26 18:24 | 5.22957 | 40.85142 | 33016 ft | 450 kts | 13° |
| 2026-04-26 18:24 | 5.29112 | 40.86507 | 33017 ft | 450 kts | 13° |
| 2026-04-26 18:25 | 5.35193 | 40.87857 | 33016 ft | 450 kts | 13° |
| 2026-04-26 18:25 | 5.41322 | 40.89217 | 33004 ft | 451 kts | 13° |
| 2026-04-26 18:26 | 5.47445 | 40.90577 | 33006 ft | 451 kts | 13° |
| 2026-04-26 18:26 | 5.53581 | 40.91939 | 32986 ft | 451 kts | 13° |
| 2026-04-26 18:27 | 5.59720 | 40.93302 | 32991 ft | 451 kts | 13° |
| 2026-04-26 18:27 | 5.65805 | 40.94654 | 32990 ft | 450 kts | 13° |
| 2026-04-26 18:28 | 5.71921 | 40.96012 | 32986 ft | 450 kts | 13° |
| 2026-04-26 18:28 | 5.78044 | 40.97373 | 32987 ft | 450 kts | 14° |
| 2026-04-26 18:29 | 5.84165 | 40.98734 | 32992 ft | 450 kts | 14° |
| 2026-04-26 18:29 | 5.90281 | 41.00093 | 32996 ft | 450 kts | 14° |
| 2026-04-26 18:30 | 5.96403 | 41.01455 | 32985 ft | 450 kts | 14° |
| 2026-04-26 18:30 | 6.02524 | 41.02816 | 33002 ft | 450 kts | 14° |
| 2026-04-26 18:31 | 6.08612 | 41.04171 | 33001 ft | 451 kts | 14° |
| 2026-04-26 18:31 | 6.14736 | 41.05533 | 33001 ft | 451 kts | 14° |
| 2026-04-26 18:32 | 6.20864 | 41.06897 | 33011 ft | 451 kts | 14° |
| 2026-04-26 18:32 | 6.27013 | 41.08266 | 33009 ft | 451 kts | 14° |
| 2026-04-26 18:33 | 6.33149 | 41.09633 | 33007 ft | 452 kts | 14° |
| 2026-04-26 18:33 | 6.39257 | 41.10994 | 33001 ft | 452 kts | 14° |
| 2026-04-26 18:34 | 6.45399 | 41.12362 | 33011 ft | 452 kts | 14° |
| 2026-04-26 18:34 | 6.51540 | 41.13731 | 33012 ft | 452 kts | 14° |
| 2026-04-26 18:35 | 6.57699 | 41.15103 | 33012 ft | 452 kts | 14° |
| 2026-04-26 18:35 | 6.63850 | 41.16474 | 33013 ft | 453 kts | 13° |
| 2026-04-26 18:36 | 6.70002 | 41.17847 | 33015 ft | 453 kts | 13° |
| 2026-04-26 18:36 | 6.76119 | 41.19212 | 33012 ft | 453 kts | 13° |
| 2026-04-26 18:37 | 6.82271 | 41.20585 | 33019 ft | 453 kts | 13° |
| 2026-04-26 18:37 | 6.88422 | 41.21958 | 33017 ft | 452 kts | 13° |
| 2026-04-26 18:38 | 6.94577 | 41.23333 | 33021 ft | 452 kts | 13° |
| 2026-04-26 18:38 | 7.00733 | 41.24708 | 33017 ft | 453 kts | 13° |
| 2026-04-26 18:39 | 7.06882 | 41.26082 | 33022 ft | 453 kts | 13° |
| 2026-04-26 18:39 | 7.13036 | 41.27458 | 33014 ft | 453 kts | 13° |
| 2026-04-26 18:40 | 7.19186 | 41.28833 | 33016 ft | 453 kts | 13° |
| 2026-04-26 18:40 | 7.25345 | 41.30210 | 33016 ft | 453 kts | 13° |
| 2026-04-26 18:41 | 7.31472 | 41.31587 | 33022 ft | 454 kts | 13° |
| 2026-04-26 18:41 | 7.37643 | 41.32977 | 33021 ft | 454 kts | 13° |
| 2026-04-26 18:42 | 7.43804 | 41.34365 | 33020 ft | 454 kts | 13° |
| 2026-04-26 18:42 | 7.49983 | 41.35757 | 33017 ft | 454 kts | 13° |
| 2026-04-26 18:43 | 7.56150 | 41.37146 | 33021 ft | 454 kts | 13° |
| 2026-04-26 18:43 | 7.62278 | 41.38527 | 33021 ft | 454 kts | 13° |
| 2026-04-26 18:44 | 7.68454 | 41.39919 | 33017 ft | 455 kts | 13° |
| 2026-04-26 18:44 | 7.74627 | 41.41311 | 33022 ft | 455 kts | 13° |
| 2026-04-26 18:45 | 7.80810 | 41.42705 | 33022 ft | 455 kts | 13° |
| 2026-04-26 18:45 | 7.86987 | 41.44099 | 33018 ft | 455 kts | 13° |
| 2026-04-26 18:46 | 7.93169 | 41.45494 | 33017 ft | 455 kts | 13° |
| 2026-04-26 18:46 | 7.99355 | 41.46891 | 33020 ft | 455 kts | 13° |
| 2026-04-26 18:47 | 8.05545 | 41.48289 | 33015 ft | 455 kts | 13° |
| 2026-04-26 18:47 | 8.11689 | 41.49677 | 33022 ft | 455 kts | 13° |
| 2026-04-26 18:48 | 8.17883 | 41.51077 | 33015 ft | 455 kts | 13° |
| 2026-04-26 18:48 | 8.24051 | 41.52471 | 33022 ft | 454 kts | 13° |
| 2026-04-26 18:49 | 8.30222 | 41.53867 | 33013 ft | 454 kts | 13° |
| 2026-04-26 18:49 | 8.36392 | 41.55263 | 33020 ft | 454 kts | 13° |
| 2026-04-26 18:50 | 8.42557 | 41.56661 | 33015 ft | 454 kts | 13° |
| 2026-04-26 18:50 | 8.48693 | 41.58053 | 33018 ft | 454 kts | 13° |
| 2026-04-26 18:51 | 8.54868 | 41.59454 | 33027 ft | 454 kts | 13° |
| 2026-04-26 18:51 | 8.61041 | 41.60856 | 33022 ft | 454 kts | 13° |
| 2026-04-26 18:52 | 8.67171 | 41.62248 | 33023 ft | 454 kts | 13° |
| 2026-04-26 18:52 | 8.73329 | 41.63648 | 33034 ft | 453 kts | 13° |
| 2026-04-26 18:53 | 8.79482 | 41.65046 | 33037 ft | 453 kts | 13° |
| 2026-04-26 18:53 | 8.85644 | 41.66447 | 33052 ft | 453 kts | 13° |
| 2026-04-26 18:54 | 8.91806 | 41.67849 | 33045 ft | 454 kts | 13° |
| 2026-04-26 18:54 | 8.97919 | 41.69239 | 33044 ft | 441 kts | 13° |
| 2026-04-26 18:55 | 9.03730 | 41.70561 | 33041 ft | 416 kts | 13° |
| 2026-04-26 18:55 | 9.09297 | 41.71828 | 33080 ft | 409 kts | 13° |
| 2026-04-26 18:56 | 9.14822 | 41.73087 | 33076 ft | 405 kts | 13° |
| 2026-04-26 18:56 | 9.20316 | 41.74340 | 33086 ft | 403 kts | 13° |
| 2026-04-26 18:57 | 9.23941 | 41.75166 | 33087 ft | 403 kts | 13° |
| 2026-04-26 18:57 | 9.31280 | 41.76839 | 33084 ft | 404 kts | 13° |
| 2026-04-26 18:58 | 9.35851 | 41.77882 | 33094 ft | 405 kts | 13° |
| 2026-04-26 18:58 | 9.42256 | 41.79342 | 33075 ft | 406 kts | 13° |
| 2026-04-26 18:59 | 9.46879 | 41.80398 | 33072 ft | 406 kts | 13° |
| 2026-04-26 18:59 | 9.52368 | 41.81651 | 33056 ft | 406 kts | 13° |
| 2026-04-26 19:00 | 9.57885 | 41.82911 | 33052 ft | 406 kts | 13° |
| 2026-04-26 19:00 | 9.63374 | 41.84270 | 33016 ft | 405 kts | 19° |
| 2026-04-26 19:01 | 9.68357 | 41.86912 | 33040 ft | 408 kts | 33° |
| 2026-04-26 19:01 | 9.73200 | 41.90179 | 33013 ft | 426 kts | 33° |
| 2026-04-26 19:02 | 9.78193 | 41.93552 | 33008 ft | 441 kts | 33° |
| 2026-04-26 19:02 | 9.82546 | 41.96468 | 32987 ft | 452 kts | 33° |
| 2026-04-26 19:03 | 9.88736 | 42.00597 | 32975 ft | 460 kts | 33° |
| 2026-04-26 19:03 | 9.94070 | 42.04150 | 32959 ft | 457 kts | 33° |
| 2026-04-26 19:04 | 9.99378 | 42.07689 | 32946 ft | 456 kts | 33° |
| 2026-04-26 19:04 | 10.04671 | 42.11219 | 32951 ft | 455 kts | 33° |
| 2026-04-26 19:05 | 10.12574 | 42.16493 | 32948 ft | 455 kts | 33° |
| 2026-04-26 19:06 | 10.17860 | 42.20023 | 32958 ft | 455 kts | 33° |
| 2026-04-26 19:06 | 10.23154 | 42.23558 | 32949 ft | 455 kts | 33° |
| 2026-04-26 19:07 | 10.28452 | 42.27099 | 32949 ft | 456 kts | 33° |
| 2026-04-26 19:07 | 10.31118 | 42.28881 | 32450 ft | 462 kts | 33° |
| 2026-04-26 19:07 | 10.33799 | 42.30673 | 31741 ft | 460 kts | 33° |
| 2026-04-26 19:07 | 10.36471 | 42.32459 | 30921 ft | 460 kts | 34° |
| 2026-04-26 19:08 | 10.39123 | 42.34233 | 30068 ft | 461 kts | 34° |
| 2026-04-26 19:08 | 10.41815 | 42.36034 | 29010 ft | 463 kts | 34° |
| 2026-04-26 19:08 | 10.44496 | 42.37829 | 28291 ft | 458 kts | 34° |
| 2026-04-26 19:08 | 10.47144 | 42.39601 | 27621 ft | 452 kts | 34° |
| 2026-04-26 19:09 | 10.49750 | 42.41345 | 26948 ft | 447 kts | 34° |
| 2026-04-26 19:09 | 10.52331 | 42.43074 | 26294 ft | 442 kts | 34° |
| 2026-04-26 19:09 | 10.54886 | 42.44785 | 25651 ft | 437 kts | 34° |
| 2026-04-26 19:09 | 10.57416 | 42.46480 | 24998 ft | 434 kts | 34° |
| 2026-04-26 19:10 | 10.59930 | 42.48166 | 24337 ft | 431 kts | 35° |
| 2026-04-26 19:10 | 10.62426 | 42.49838 | 23694 ft | 428 kts | 35° |
| 2026-04-26 19:10 | 10.64911 | 42.51502 | 22957 ft | 426 kts | 34° |
| 2026-04-26 19:10 | 10.67463 | 42.53011 | 22216 ft | 424 kts | 29° |
| 2026-04-26 19:11 | 10.70102 | 42.54320 | 21579 ft | 420 kts | 27° |
| 2026-04-26 19:11 | 10.72741 | 42.55555 | 20944 ft | 415 kts | 26° |
| 2026-04-26 19:11 | 10.75353 | 42.56778 | 20327 ft | 410 kts | 27° |
| 2026-04-26 19:11 | 10.77921 | 42.58002 | 19712 ft | 406 kts | 27° |
| 2026-04-26 19:12 | 10.80432 | 42.59222 | 19101 ft | 402 kts | 27° |
| 2026-04-26 19:12 | 10.82945 | 42.60456 | 18496 ft | 399 kts | 27° |
| 2026-04-26 19:12 | 10.85432 | 42.61686 | 17831 ft | 396 kts | 27° |
| 2026-04-26 19:12 | 10.87899 | 42.62907 | 17182 ft | 392 kts | 27° |
| 2026-04-26 19:13 | 10.90335 | 42.64113 | 16570 ft | 387 kts | 27° |
| 2026-04-26 19:13 | 10.92746 | 42.65306 | 15975 ft | 383 kts | 27° |
| 2026-04-26 19:13 | 10.95134 | 42.66487 | 15392 ft | 380 kts | 27° |
| 2026-04-26 19:13 | 10.97495 | 42.67654 | 14821 ft | 376 kts | 27° |
| 2026-04-26 19:14 | 10.99840 | 42.68813 | 14231 ft | 373 kts | 27° |
| 2026-04-26 19:14 | 11.02177 | 42.69968 | 13634 ft | 372 kts | 27° |
| 2026-04-26 19:14 | 11.04498 | 42.71115 | 13004 ft | 369 kts | 27° |
| 2026-04-26 19:14 | 11.06022 | 42.71868 | 12684 ft | 366 kts | 27° |
| 2026-04-26 19:15 | 11.09069 | 42.73374 | 12068 ft | 362 kts | 27° |
| 2026-04-26 19:15 | 11.11322 | 42.74488 | 11611 ft | 356 kts | 26° |
| 2026-04-26 19:15 | 11.13510 | 42.75570 | 11184 ft | 351 kts | 26° |
| 2026-04-26 19:15 | 11.15692 | 42.76649 | 10797 ft | 346 kts | 26° |
| 2026-04-26 19:16 | 11.17838 | 42.77710 | 10442 ft | 340 kts | 26° |
| 2026-04-26 19:16 | 11.19948 | 42.78753 | 10085 ft | 335 kts | 26° |
| 2026-04-26 19:16 | 11.22021 | 42.79778 | 9931 ft | 323 kts | 26° |
| 2026-04-26 19:16 | 11.23993 | 42.80755 | 9913 ft | 307 kts | 26° |
| 2026-04-26 19:17 | 11.25882 | 42.81689 | 9847 ft | 295 kts | 26° |
| 2026-04-26 19:17 | 11.27701 | 42.82590 | 9716 ft | 287 kts | 26° |
| 2026-04-26 19:17 | 11.29486 | 42.83473 | 9431 ft | 284 kts | 26° |
| 2026-04-26 19:17 | 11.31259 | 42.84351 | 9106 ft | 284 kts | 26° |
| 2026-04-26 19:18 | 11.33020 | 42.85223 | 8763 ft | 278 kts | 26° |
| 2026-04-26 19:18 | 11.34723 | 42.86067 | 8365 ft | 273 kts | 27° |
| 2026-04-26 19:18 | 11.36415 | 42.86905 | 7955 ft | 268 kts | 27° |
| 2026-04-26 19:18 | 11.38088 | 42.87734 | 7481 ft | 266 kts | 27° |
| 2026-04-26 19:19 | 11.39755 | 42.88560 | 7004 ft | 266 kts | 27° |
| 2026-04-26 19:19 | 11.41410 | 42.89380 | 6577 ft | 263 kts | 27° |
| 2026-04-26 19:19 | 11.43145 | 42.89898 | 6190 ft | 261 kts | 4° |
| 2026-04-26 19:19 | 11.44934 | 42.89903 | 5926 ft | 252 kts | 2° |
| 2026-04-26 19:20 | 11.46644 | 42.89915 | 5812 ft | 238 kts | 4° |
| 2026-04-26 19:20 | 11.47723 | 42.89927 | 5743 ft | 230 kts | 4° |
| 2026-04-26 19:20 | 11.49776 | 42.89951 | 5627 ft | 210 kts | 4° |
| 2026-04-26 19:20 | 11.51184 | 42.89969 | 5528 ft | 195 kts | 4° |
| 2026-04-26 19:21 | 11.52485 | 42.89985 | 5436 ft | 179 kts | 4° |
| 2026-04-26 19:21 | 11.53684 | 42.90025 | 5200 ft | 172 kts | 14° |
| 2026-04-26 19:21 | 11.54682 | 42.90638 | 4623 ft | 176 kts | 63° |
| 2026-04-26 19:21 | 11.54902 | 42.91802 | 4407 ft | 165 kts | 85° |
| 2026-04-26 19:22 | 11.54975 | 42.92958 | 4166 ft | 160 kts | 88° |
| 2026-04-26 19:22 | 11.55005 | 42.94075 | 3942 ft | 154 kts | 89° |
| 2026-04-26 19:22 | 11.55011 | 42.95141 | 3759 ft | 147 kts | 90° |
| 2026-04-26 19:22 | 11.55008 | 42.96168 | 3542 ft | 142 kts | 91° |
| 2026-04-26 19:23 | 11.54998 | 42.97179 | 3373 ft | 142 kts | 91° |
| 2026-04-26 19:23 | 11.54986 | 42.98184 | 3197 ft | 141 kts | 92° |
| 2026-04-26 19:23 | 11.54973 | 42.99166 | 2997 ft | 139 kts | 92° |
| 2026-04-26 19:23 | 11.54959 | 43.00118 | 2823 ft | 132 kts | 91° |
| 2026-04-26 19:24 | 11.54946 | 43.01045 | 2662 ft | 132 kts | 91° |
| 2026-04-26 19:24 | 11.54933 | 43.01976 | 2466 ft | 130 kts | 91° |
| 2026-04-26 19:24 | 11.54905 | 43.03847 | 2125 ft | 136 kts | 90° |
| 2026-04-26 19:25 | 11.54892 | 43.04796 | 1942 ft | 133 kts | 91° |
| 2026-04-26 19:25 | 11.54883 | 43.05437 | 1833 ft | 134 kts | 91° |
| 2026-04-26 19:25 | 11.54865 | 43.06680 | 1597 ft | 130 kts | 90° |
| 2026-04-26 19:25 | 11.54852 | 43.07591 | 1415 ft | 128 kts | 90° |
| 2026-04-26 19:26 | 11.54839 | 43.08504 | 1255 ft | 131 kts | 91° |
| 2026-04-26 19:26 | 11.54825 | 43.09424 | 1082 ft | 130 kts | 90° |
| 2026-04-26 19:26 | 11.54813 | 43.10351 | 886 ft | 130 kts | 90° |
| 2026-04-26 19:26 | 11.54799 | 43.11267 | 714 ft | 128 kts | 90° |
| 2026-04-26 19:27 | 11.54786 | 43.12177 | 568 ft | 131 kts | 89° |
| 2026-04-26 19:27 | 11.54773 | 43.13100 | 370 ft | 128 kts | 89° |
| 2026-04-26 19:27 | 11.54761 | 43.14013 | 227 ft | 130 kts | 90° |
| 2026-04-26 19:27 | 11.54749 | 43.14939 | 45 ft | 129 kts | 91° |
| 2026-04-26 19:28 | 11.54737 | 43.15587 | 35 ft | 18 kts | 96° |
| 2026-04-26 19:28 | 11.54739 | 43.15654 | 34 ft | 1 kts | 26° |
| 2026-04-26 19:28 | 11.54743 | 43.15645 | 35 ft | 4 kts | 280° |
| 2026-04-26 19:28 | 11.54741 | 43.15600 | 35 ft | 8 kts | 267° |
| 2026-04-26 19:29 | 11.54739 | 43.15542 | 36 ft | 8 kts | 268° |
| 2026-04-26 19:29 | 11.54742 | 43.15447 | 37 ft | 22 kts | 271° |
| 2026-04-26 19:29 | 11.54746 | 43.15289 | 39 ft | 22 kts | 271° |
| 2026-04-26 19:29 | 11.54801 | 43.15157 | 40 ft | 21 kts | 334° |
| 2026-04-26 19:30 | 11.54916 | 43.15144 | 39 ft | 14 kts | 359° |
| 2026-04-26 19:30 | 11.54996 | 43.15111 | 39 ft | 12 kts | 295° |
| 2026-04-26 19:30 | 11.55031 | 43.15057 | 40 ft | 10 kts | 335° |
| 2026-04-26 19:30 | 11.55074 | 43.15051 | 40 ft | 9 kts | 359° |
| 2026-04-26 19:31 | 11.55122 | 43.15051 | 40 ft | 0 kts | 2° |